Flight Track Log - Related Links

Times and Time Zones

All times are in EDT time to prevent confusion due to time zone crossing. See the N3281S flight status page for this flight to view local times or setup timezone preferences in your user account.

Time Position Orientation Groundspeed Altitude Reporting Facility
EDT Latitude Longitude Course Direction KTS MPH feet Rate Location/Type
Mon 09:08:24 AM 39.9200 -84.0108 210° Southwest 96 110 2,000  Level Indianapolis Center
Mon 09:10:25 AM 39.8881 -84.0353 210° Southwest 101 116 3,600 720 Climbing Indianapolis Center
Mon 09:11:19 AM 39.8686 -84.0397 190° South 104 120 4,100 655 Climbing Indianapolis Center
Mon 09:11:20 AM 39.8639 -84.0444 218° Southwest 100 115 4,200 194 Climbing Indianapolis Center
Mon 09:12:21 AM 39.8550 -84.0786 251° West 126 145 4,300  Climbing Indianapolis Center
Mon 09:12:45 AM 39.8486 -84.1100 255° West 143 165 4,200 -97 Descending Indianapolis Center
Mon 09:13:23 AM 39.8428 -84.1383 255° West 136 157 4,200  Level Indianapolis Center
Mon 09:13:39 AM 39.8378 -84.1519 244° Southwest 141 162 4,200  Level Indianapolis Center
Mon 09:14:25 AM 39.8269 -84.1847 247° West 139 160 4,200 -90 Level Indianapolis Center
Mon 09:14:46 AM 39.8194 -84.2058 245° Southwest 143 165 4,100 -98 Descending Indianapolis Center
Mon 09:15:26 AM 39.8078 -84.2303 238° Southwest 141 162 4,100  Level Indianapolis Center
Mon 09:15:47 AM 39.7981 -84.2486 235° Southwest 142 163 4,100 97 Level Indianapolis Center
Mon 09:16:28 AM 39.7886 -84.2742 244° Southwest 141 162 4,200 143 Climbing Indianapolis Center
Mon 09:16:29 AM 39.7861 -84.2819 247° West 140 161 4,200  Level Indianapolis Center
Mon 09:17:30 AM 39.7706 -84.3169 240° Southwest 139 160 4,200 49 Level Indianapolis Center
Mon 09:18:31 AM 39.7303 -84.3508 213° Southwest 137 158 4,300 97 Climbing Indianapolis Center
Mon 09:18:32 AM 39.7367 -84.3444 38° Northeast 145 167 4,300 98 Level Indianapolis Center
Mon 09:19:32 AM 39.7117 -84.3883 233° Southwest 143 165 4,400 97 Climbing Indianapolis Center
Mon 09:19:34 AM 39.7108 -84.3878 153° Southeast 140 161 4,400 -90 Level Indianapolis Center
Mon 09:20:39 AM 39.7075 -84.4450 266° West 148 170 4,300 -95 Descending Indianapolis Center
Mon 09:21:40 AM 39.7017 -84.4983 262° West 147 169 4,200 -50 Descending Indianapolis Center
Mon 09:22:39 AM 39.6986 -84.5458 265° West 147 169 4,200 -100 Level Indianapolis Center
Mon 09:22:40 AM 39.6961 -84.5492 226° Southwest 146 168 4,100 -107 Descending Indianapolis Center
Mon 09:23:35 AM 39.6908 -84.5972 262° West 153 176 4,100  Level Indianapolis Center
Mon 09:23:41 AM 39.6886 -84.5967 169° South 146 168 4,100  Level Indianapolis Center
Mon 09:24:42 AM 39.6906 -84.6572 272° West 145 167 4,100 -97 Level Indianapolis Center
Mon 09:24:43 AM 39.6869 -84.6483 118° Southeast 145 167 4,000  Descending Indianapolis Center
Mon 09:25:43 AM 39.6869 -84.7108 270° West 146 168 4,100 97 Climbing Indianapolis Center
Mon 09:25:45 AM 39.6886 -84.7114 346° North 145 167 4,100 94 Level Indianapolis Center
Mon 09:26:47 AM 39.6833 -84.7631 262° West 145 167 4,200 100 Climbing Indianapolis Center
Mon 09:27:45 AM 39.6733 -84.8119 255° West 142 163 4,300 97 Climbing Indianapolis Center
Mon 09:27:49 AM 39.6756 -84.8131 339° North 142 163 4,300  Level Indianapolis Center
Mon 09:28:46 AM 39.6592 -84.8639 247° West 147 169 4,300  Level Indianapolis Center
Mon 09:28:51 AM 39.6622 -84.8578 57° Northeast 143 165 4,300 -100 Level Indianapolis Center
Mon 09:29:46 AM 39.6553 -84.9178 261° West 150 173 4,200 -97 Descending Indianapolis Center
Mon 09:29:53 AM 39.6519 -84.9225 227° Southwest 148 170 4,200  Level Indianapolis Center
Mon 09:30:41 AM 39.6500 -84.9656 267° West 150 173 4,200  Level Indianapolis Center
Mon 09:30:55 AM 39.6492 -84.9750 263° West 149 171 4,200 -98 Level Indianapolis Center
Mon 09:31:42 AM 39.6481 -85.0197 268° West 151 174 4,100 -97 Descending Indianapolis Center
Mon 09:31:57 AM 39.6467 -85.0292 259° West 149 171 4,100 98 Level Indianapolis Center
Mon 09:32:43 AM 39.6419 -85.0731 262° West 151 174 4,200 97 Climbing Indianapolis Center
Mon 09:32:59 AM 39.6422 -85.0819 272° West 149 171 4,200  Level Indianapolis Center
Mon 09:34:01 AM 39.6358 -85.1342 261° West 148 170 4,200  Level Indianapolis Center
Mon 09:35:03 AM 39.6319 -85.1867 265° West 147 169 4,200 -48 Level Indianapolis Center
Mon 09:36:05 AM 39.6211 -85.2472 257° West 145 167 4,100  Descending Indianapolis Center
Mon 09:37:07 AM 39.6122 -85.2992 257° West 146 168 4,200 48 Climbing Indianapolis Center
Mon 09:38:09 AM 39.6058 -85.3492 261° West 145 167 4,200  Level Indianapolis Center
Mon 09:39:11 AM 39.5981 -85.3983 258° West 142 163 4,200  Level Indianapolis Center
Mon 09:40:13 AM 39.5850 -85.4464 251° West 141 162 4,200 48 Level Indianapolis Center
Mon 09:41:15 AM 39.5711 -85.4953 250° West 142 163 4,300  Climbing Indianapolis Center
Mon 09:42:17 AM 39.5553 -85.5544 251° West 143 165 4,200 -97 Descending Indianapolis Center
Mon 09:43:19 AM 39.5453 -85.6053 256° West 145 167 4,100  Descending Indianapolis Center
Mon 09:44:21 AM 39.5356 -85.6550 256° West 145 167 4,200 48 Climbing Indianapolis Center
Mon 09:45:23 AM 39.5247 -85.7044 254° West 144 166 4,200  Level Indianapolis Center
Mon 09:46:25 AM 39.5128 -85.7517 252° West 141 162 4,200 -48 Level Indianapolis Center
Mon 09:47:27 AM 39.4992 -85.8111 253° West 142 163 4,100 -48 Descending Indianapolis Center
Mon 09:48:29 AM 39.4839 -85.8575 247° West 141 162 4,100 48 Level Indianapolis Center
Mon 09:49:31 AM 39.4717 -85.9050 252° West 140 161 4,200 48 Climbing Indianapolis Center
Mon 09:50:33 AM 39.4592 -85.9528 251° West 140 161 4,200 -48 Level Indianapolis Center
Mon 09:51:35 AM 39.4481 -86.0019 254° West 141 162 4,100 -48 Descending Indianapolis Center
Mon 09:52:37 AM 39.4358 -86.0494 252° West 141 162 4,100  Level Indianapolis Center
Mon 09:53:40 AM 39.4239 -86.0981 252° West 141 162 4,100  Level Indianapolis Center
Mon 09:54:42 AM 39.4092 -86.1564 252° West 142 163 4,100 62 Level Indianapolis Center
Mon 09:56:54 AM 39.3833 -86.2500 250° West 135 155 4,300 32 Climbing Indianapolis TRACON
Mon 09:57:48 AM 39.3806 -86.2989 266° West 138 159 4,200 -103 Descending Indianapolis Center
Mon 09:58:50 AM 39.3731 -86.3500 259° West 143 165 4,100 -48 Descending Indianapolis Center
Mon 09:59:52 AM 39.3631 -86.3989 255° West 142 163 4,100  Level Indianapolis Center
Mon 10:00:54 AM 39.3489 -86.4561 252° West 141 162 4,100  Level Indianapolis Center
Mon 10:01:56 AM 39.3303 -86.4994 241° Southwest 140 161 4,100  Level Indianapolis Center
Mon 10:02:58 AM 39.3189 -86.5472 253° West 139 160 4,100  Level Indianapolis Center
Mon 10:04:00 AM 39.3108 -86.5961 258° West 139 160 4,100 48 Level Indianapolis Center
Mon 10:05:02 AM 39.3047 -86.6442 261° West 137 158 4,200 48 Climbing Indianapolis Center
Mon 10:06:04 AM 39.2928 -86.6922 252° West 140 161 4,200 -48 Level Indianapolis Center
Mon 10:07:06 AM 39.2775 -86.7486 251° West 138 159 4,100  Descending Indianapolis Center
Mon 10:08:08 AM 39.2644 -86.7950 250° West 139 160 4,200 -48 Climbing Indianapolis Center
Mon 10:09:10 AM 39.2511 -86.8431 250° West 140 161 4,000 -145 Descending Indianapolis Center
Mon 10:10:12 AM 39.2403 -86.8925 254° West 142 163 3,900 -288 Descending Indianapolis Center
Mon 10:11:15 AM 39.2278 -86.9442 253° West 147 169 3,400 -384 Descending Indianapolis Center
Mon 10:12:17 AM 39.2167 -87.0114 258° West 157 181 3,100 -339 Descending Indianapolis Center
Mon 10:13:19 AM 39.2033 -87.0639 252° West 157 181 2,700 -435 Descending Indianapolis Center
Mon 10:14:21 AM 39.1933 -87.1256 258° West 162 186 2,200 -484 Descending Indianapolis Center

Login

Don't have an account? Register now (free) for customized features, flight alerts, and more!